X  Fechar Dados meteorológicos de METAR da aviação     EHRD Rotterdam The Hague Airport
Temperatura
54°F Temperatura
46°F Ponto de orvalho
77% Umidade



Vento
5 MPH
8 KM/H
2 M/S
4 NÓS



340°
NNO
Condições atuais

Limpo Limpo
Pressão 1004.92 (hPa) - 29.68 (inHg)
Visibilidade 6.2 (milha) - 10 (km)
Aeroporto
Código do aeroporto EHRD

Localização: Rotterdam The Hague Airport
Distância: 14 (mi)

Metar:
EHRD 291725Z AUTO 34004KT 9999 NSC 12/08 Q1005 NOSIG

Hora: 29-09-2022 19:25 CEST